createdAt,value
2018-11-22T12:17:46.650Z,41.93
2018-11-22T12:20:16.051Z,42.43
2018-11-22T12:22:45.851Z,43.33
2018-11-22T12:25:15.875Z,41.37
2018-11-22T12:27:45.499Z,38.73
2018-11-22T12:30:17.429Z,41.47
2018-11-22T12:32:51.236Z,41.80
2018-11-22T12:36:23.796Z,39.37
2018-11-22T12:38:52.571Z,41.77
2018-11-22T12:41:21.244Z,42.63
2018-11-22T12:43:49.865Z,37.63
2018-11-22T12:46:18.494Z,44.07
2018-11-22T12:48:47.750Z,40.67
2018-11-22T12:51:16.362Z,43.07
2018-11-22T12:53:45.003Z,38.50
2018-11-22T12:56:13.647Z,38.97
2018-11-22T12:58:42.301Z,38.93
2018-11-22T13:01:10.917Z,37.90
2018-11-22T13:03:39.465Z,40.63
2018-11-22T13:06:08.181Z,40.97
2018-11-22T13:08:36.778Z,39.63
2018-11-22T13:11:05.520Z,43.20
2018-11-22T13:13:34.095Z,37.90
2018-11-22T13:16:02.752Z,41.17
2018-11-22T13:18:31.382Z,41.47
2018-11-22T13:21:00.023Z,38.63
2018-11-22T13:23:28.656Z,43.83
2018-11-22T13:25:57.265Z,39.77
2018-11-22T13:28:25.956Z,40.73
2018-11-22T13:30:54.585Z,41.57
2018-11-22T13:33:23.147Z,41.07
2018-11-22T13:35:51.753Z,42.97
2018-11-22T13:38:20.420Z,41.90
2018-11-22T13:40:49.099Z,40.43
2018-11-22T13:43:17.684Z,39.07
2018-11-22T13:45:46.360Z,40.47
2018-11-22T13:48:14.981Z,41.93
2018-11-22T13:50:43.554Z,41.73
2018-11-22T13:53:12.124Z,38.90
2018-11-22T13:55:40.713Z,42.30
2018-11-22T13:58:09.354Z,43.77
2018-11-22T14:00:37.935Z,43.67
2018-11-22T14:03:07.636Z,40.73
2018-11-22T14:05:36.174Z,42.53
2018-11-22T14:08:04.932Z,42.23
2018-11-22T14:10:33.506Z,41.07
2018-11-22T14:13:02.040Z,39.47
2018-11-22T14:15:31.625Z,40.90
2018-11-22T14:18:03.290Z,39.00
2018-11-22T14:20:33.183Z,41.67
2018-11-22T14:23:01.855Z,39.53
2018-11-22T14:25:30.895Z,37.70
2018-11-22T14:27:59.571Z,39.37
2018-11-22T14:30:30.696Z,41.60
2018-11-22T14:32:59.343Z,42.73
2018-11-22T14:35:28.072Z,38.20
2018-11-22T14:37:56.730Z,39.17
2018-11-22T14:40:26.977Z,40.37
2018-11-22T14:42:56.211Z,41.13
2018-11-22T14:45:25.314Z,41.30
2018-11-22T14:47:55.148Z,39.23
2018-11-22T14:50:27.908Z,39.13
2018-11-22T14:53:30.469Z,40.60
2018-11-22T14:55:59.104Z,39.33
2018-11-22T14:58:28.671Z,39.87
2018-11-22T15:00:57.350Z,40.33
2018-11-22T15:03:26.525Z,40.17
2018-11-22T15:05:54.768Z,39.30
2018-11-22T15:08:23.413Z,40.23
2018-11-22T15:10:52.069Z,38.23
2018-11-22T15:13:20.710Z,42.37
2018-11-22T15:15:49.356Z,36.07
2018-11-22T15:18:17.953Z,39.67
2018-11-22T15:20:46.508Z,37.53
2018-11-22T15:23:15.082Z,37.97
2018-11-22T15:25:43.653Z,38.53
2018-11-22T15:28:12.254Z,38.37
2018-11-22T15:30:40.899Z,37.27
2018-11-22T15:33:09.485Z,37.90
2018-11-22T15:35:38.105Z,36.53
2018-11-22T15:38:06.847Z,37.97
2018-11-22T15:40:35.431Z,37.47
2018-11-22T15:43:04.475Z,37.60
2018-11-22T15:45:35.012Z,35.50
2018-11-22T15:48:01.648Z,40.50
2018-11-22T15:50:30.383Z,37.47
2018-11-22T15:52:58.921Z,37.37
2018-11-22T15:55:28.035Z,38.23
2018-11-22T15:57:58.263Z,38.47
2018-11-22T16:00:33.288Z,35.00
2018-11-22T16:03:02.401Z,36.30
2018-11-22T16:05:31.639Z,36.40
2018-11-22T16:08:00.276Z,38.17
2018-11-22T16:10:30.567Z,35.90
2018-11-22T16:13:02.164Z,33.87
2018-11-22T16:15:44.389Z,38.37
2018-11-22T16:18:13.097Z,38.00
2018-11-22T16:20:41.706Z,37.97
2018-11-22T16:23:10.471Z,38.90
2018-11-22T16:25:39.027Z,39.87
2018-11-22T16:28:07.867Z,36.93
2018-11-22T16:30:36.914Z,35.57
2018-11-22T16:33:05.653Z,37.00
2018-11-22T16:35:34.888Z,36.73
2018-11-22T16:38:03.552Z,40.17
2018-11-22T16:40:32.214Z,42.43
2018-11-22T16:43:02.266Z,36.13
2018-11-22T16:45:32.150Z,34.43
2018-11-22T16:48:02.192Z,35.83
2018-11-22T16:50:31.858Z,35.03
2018-11-22T16:53:00.420Z,36.13
2018-11-22T16:55:29.109Z,37.77
2018-11-22T16:57:58.964Z,36.10
2018-11-22T17:00:28.883Z,34.63
2018-11-22T17:02:58.857Z,34.87
2018-11-22T17:05:27.909Z,33.77
2018-11-22T17:07:56.516Z,35.67
2018-11-22T17:10:26.377Z,38.53
2018-11-22T17:12:56.252Z,38.07
2018-11-22T17:15:26.412Z,42.97
2018-11-22T17:17:55.858Z,40.97
2018-11-22T17:20:24.875Z,38.40
2018-11-22T17:22:54.071Z,39.23
2018-11-22T17:25:24.979Z,37.30
2018-11-22T17:27:55.316Z,37.57
2018-11-22T17:30:26.778Z,38.03
2018-11-22T17:32:55.361Z,38.30
2018-11-22T17:35:25.094Z,35.53
2018-11-22T17:37:54.652Z,36.93
2018-11-22T17:40:26.472Z,36.53
2018-11-22T17:42:55.286Z,32.73
2018-11-22T17:45:32.868Z,38.07
2018-11-22T17:48:01.671Z,38.40
2018-11-22T17:50:32.132Z,35.83
2018-11-22T17:53:01.180Z,35.63
2018-11-22T17:55:30.756Z,34.63
2018-11-22T17:57:59.389Z,35.17
2018-11-22T18:00:33.533Z,35.57
2018-11-22T18:03:03.088Z,32.53
2018-11-22T18:05:31.965Z,36.07
2018-11-22T18:08:00.493Z,35.50
2018-11-22T18:10:33.560Z,35.57
2018-11-22T18:13:02.164Z,36.50
2018-11-22T18:15:32.833Z,37.73
2018-11-22T18:18:01.461Z,33.00
2018-11-22T18:20:31.151Z,32.77
2018-11-22T18:23:00.735Z,34.80
2018-11-22T18:25:30.612Z,33.43
2018-11-22T18:27:59.598Z,33.37
2018-11-22T18:30:29.520Z,35.20
2018-11-22T18:32:59.840Z,33.40
2018-11-22T18:35:28.502Z,34.50
2018-11-22T18:37:57.103Z,32.73
2018-11-22T18:40:26.956Z,34.27
2018-11-22T18:42:56.545Z,34.57
2018-11-22T18:45:30.354Z,35.77
2018-11-22T18:47:59.447Z,34.60
2018-11-22T18:50:28.948Z,34.57
2018-11-22T18:52:57.510Z,32.73
2018-11-22T18:55:26.148Z,34.17
2018-11-22T18:57:54.751Z,38.97
2018-11-22T19:00:27.958Z,35.80
2018-11-22T19:02:58.107Z,34.20
2018-11-22T19:05:27.118Z,34.90
2018-11-22T19:07:56.703Z,31.03
2018-11-22T19:10:33.016Z,35.17
2018-11-22T19:13:03.066Z,33.83
2018-11-22T19:15:33.220Z,35.27
2018-11-22T19:18:02.019Z,33.50
2018-11-22T19:20:32.699Z,35.80
2018-11-22T19:23:02.202Z,33.03
2018-11-22T19:25:30.939Z,31.80
2018-11-22T19:28:01.150Z,32.53
2018-11-22T19:30:36.873Z,32.53
2018-11-22T19:33:01.390Z,33.23
2018-11-22T19:35:31.386Z,34.70
2018-11-22T19:38:00.076Z,33.60
2018-11-22T19:40:30.141Z,33.33
2018-11-22T19:43:00.035Z,33.47
2018-11-22T19:45:30.180Z,34.30
2018-11-22T19:47:59.054Z,33.07
2018-11-22T19:50:28.561Z,35.37
2018-11-22T19:52:58.248Z,31.87
2018-11-22T19:55:28.347Z,35.63
2018-11-22T19:57:58.744Z,33.50
2018-11-22T20:00:27.994Z,33.13
2018-11-22T20:02:57.928Z,30.90
2018-11-22T20:05:27.560Z,30.40
2018-11-22T20:07:57.827Z,32.17
2018-11-22T20:10:28.983Z,35.00
2018-11-22T20:12:57.588Z,32.73
2018-11-22T20:15:26.328Z,32.67
2018-11-22T20:17:55.652Z,34.67
2018-11-22T20:20:24.774Z,35.83
2018-11-22T20:22:54.589Z,31.43
2018-11-22T20:25:23.313Z,36.67
2018-11-22T20:27:53.125Z,34.20
2018-11-22T20:30:25.386Z,31.97
2018-11-22T20:32:54.802Z,35.77
2018-11-22T20:35:23.861Z,36.33
2018-11-22T20:37:53.042Z,32.63
2018-11-22T20:40:22.769Z,32.87
2018-11-22T20:42:51.608Z,34.00
2018-11-22T20:45:21.633Z,37.23
2018-11-22T20:47:51.842Z,33.67
2018-11-22T20:50:21.860Z,36.70
2018-11-22T20:52:50.495Z,30.80
2018-11-22T20:55:23.727Z,34.07
2018-11-22T20:57:53.412Z,31.70
2018-11-22T21:00:23.485Z,38.40
2018-11-22T21:02:52.072Z,35.87
2018-11-22T21:05:21.443Z,33.57
2018-11-22T21:07:50.164Z,33.40
2018-11-22T21:10:20.211Z,36.00
2018-11-22T21:12:48.843Z,33.23
2018-11-22T21:15:20.546Z,35.43
2018-11-22T21:17:50.289Z,34.10
2018-11-22T21:20:20.347Z,38.53
2018-11-22T21:22:48.893Z,34.83
2018-11-22T21:25:18.692Z,34.47
2018-11-22T21:27:47.264Z,32.50
2018-11-22T21:30:21.229Z,36.10
2018-11-22T21:32:50.696Z,35.27
2018-11-22T21:35:19.672Z,37.43
2018-11-22T21:37:48.866Z,35.30
2018-11-22T21:40:18.413Z,33.77
2018-11-22T21:42:47.115Z,35.10
2018-11-22T21:45:18.171Z,34.17
2018-11-22T21:47:46.857Z,38.77
2018-11-22T21:50:16.677Z,34.70
2018-11-22T21:52:45.413Z,34.53
2018-11-22T21:55:15.588Z,34.83
2018-11-22T21:57:44.890Z,40.90
2018-11-22T22:00:19.496Z,37.77
2018-11-22T22:02:52.755Z,37.60
2018-11-22T22:05:18.244Z,38.33
2018-11-22T22:07:46.848Z,35.93
2018-11-22T22:10:15.469Z,37.13
2018-11-22T22:12:44.062Z,39.30
2018-11-22T22:15:14.875Z,37.53
2018-11-22T22:17:44.324Z,40.53
2018-11-22T22:20:15.553Z,38.13
2018-11-22T22:22:44.181Z,38.37
2018-11-22T22:25:15.177Z,34.30
2018-11-22T22:27:44.399Z,38.20
2018-11-22T22:30:15.033Z,38.77
2018-11-22T22:32:44.321Z,36.43
2018-11-22T22:35:12.913Z,34.73
2018-11-22T22:37:41.496Z,37.63
2018-11-22T22:40:12.962Z,40.00
2018-11-22T22:42:42.677Z,35.97
2018-11-22T22:45:12.072Z,39.40
2018-11-22T22:47:40.635Z,40.77
2018-11-22T22:50:11.814Z,37.07
2018-11-22T22:52:40.371Z,38.33
2018-11-22T22:55:09.717Z,34.23
2018-11-22T22:57:38.387Z,39.40
2018-11-22T23:00:16.093Z,37.77
2018-11-22T23:02:44.803Z,38.53
2018-11-22T23:05:13.409Z,39.47
2018-11-22T23:07:42.003Z,36.60
2018-11-22T23:10:10.655Z,36.37
2018-11-22T23:12:39.283Z,39.17
2018-11-22T23:15:10.401Z,38.73
2018-11-22T23:17:39.685Z,37.80
2018-11-22T23:20:10.950Z,39.87
2018-11-22T23:22:40.145Z,46.70
2018-11-22T23:25:09.447Z,39.73
2018-11-22T23:27:38.411Z,38.63
2018-11-22T23:30:13.568Z,41.23
2018-11-22T23:32:42.906Z,40.10
2018-11-22T23:35:11.462Z,38.83
2018-11-22T23:37:40.158Z,39.33
2018-11-22T23:40:10.818Z,38.37
2018-11-22T23:42:39.793Z,39.67
2018-11-22T23:45:09.883Z,38.80
2018-11-22T23:47:39.073Z,39.27
2018-11-22T23:50:09.682Z,42.97
2018-11-22T23:52:38.251Z,39.90
2018-11-22T23:55:07.465Z,38.53
2018-11-22T23:57:36.057Z,37.27
